• Join FlightAware (Why Join?)
  • Login
  • US Flag 
03:30PM EST


 

Airport Tracker/Info


-or-


 

Live Flight TrackerFlight Track Log ✈ EJM622 ✈ 13-Jun-2013 ✈ KMSP - KDAL

Flight Track Log - Related Links

Times and Time Zones

All times are in EDT time to prevent confusion due to time zone crossing. See the EJM622 flight status page for this flight to view local times or setup timezone preferences in your user account.

Time Position Orientation Groundspeed Altitude Reporting Facility
EDT Latitude Longitude Course Direction KTS MPH feet Rate Location/Type
03:08PM 44.8869 -93.3172 241° Southwest 258 297 4,500  Level Minneapolis Center
03:09PM 44.8517 -93.4061 241° Southwest 288 331 6,600 2,460 Climbing Minneapolis Center
03:10PM 44.7739 -93.4444 199° South 300 345 9,700 3,360 Climbing Minneapolis Center
03:12PM 44.6708 -93.4978 200° South 342 394 13,600 3,420 Climbing Minneapolis Center
03:13PM 44.5778 -93.5453 200° South 360 414 16,800 2,940 Climbing Minneapolis Center
03:14PM 44.4811 -93.5944 200° South 370 426 19,700 2,820 Climbing Minneapolis Center
03:15PM 44.3844 -93.6519 203° Southwest 377 434 22,700 2,580 Climbing Minneapolis Center
03:16PM 44.2906 -93.7297 211° Southwest 392 451 25,100 2,340 Climbing Minneapolis Center
03:17PM 44.1706 -93.8194 208° Southwest 406 467 27,600 1,980 Climbing Minneapolis Center
03:18PM 44.0472 -93.8567 192° South 449 517 29,300 1,260 Climbing Minneapolis Center
03:19PM 43.9183 -93.8961 192° South 469 540 30,300 960 Climbing Minneapolis Center
03:20PM 43.7856 -93.9369 193° South 486 559 31,300 1,140 Climbing Minneapolis Center
03:21PM 43.6494 -93.9803 193° South 496 571 32,700 1,440 Climbing Minneapolis Center
03:22PM 43.5161 -94.0219 193° South 496 571 34,300 1,500 Climbing Minneapolis Center
03:23PM 43.3553 -94.0711 193° South 497 572 35,800 780 Climbing Minneapolis Center
03:24PM 43.2244 -94.1106 192° South 495 570 36,000 240 Climbing Minneapolis Center
03:26PM 43.0351 -94.1685 197° South  Level Estimated
03:26PM 42.9697 -94.1686 197° South 483 556 36,600  Level Minneapolis Center
03:27PM 42.8350 -94.1883 186° South 490 564 37,600 1,140 Climbing Minneapolis Center
03:28PM 42.6817 -94.2336 192° South 478 550 39,000 1,140 Climbing Minneapolis Center
03:29PM 42.5531 -94.2675 191° South 474 545 40,000 480 Climbing Minneapolis Center
03:30PM 42.4094 -94.3025 190° South 470 541 40,000  Level Minneapolis Center
03:31PM 42.2831 -94.3356 191° South 463 533 40,000  Level Minneapolis Center
03:32PM 42.1569 -94.3697 191° South 462 532 40,000  Level Minneapolis Center
03:33PM 42.0300 -94.4033 191° South 463 533 40,000  Level Minneapolis Center
03:34PM 41.9033 -94.4358 191° South 462 532 40,000  Level Minneapolis Center
03:35PM 41.7744 -94.4681 191° South 466 536 40,000  Level Minneapolis Center
03:36PM 41.6481 -94.5008 191° South 463 533 40,000  Level Minneapolis Center
03:37PM 41.4925 -94.5419 191° South 470 541 40,000  Level Minneapolis Center
03:38PM 41.3644 -94.5742 191° South 469 540 40,000  Level Minneapolis Center
03:39PM 41.2381 -94.6058 191° South 464 534 40,000  Level Minneapolis Center
03:40PM 41.1117 -94.6375 191° South 461 531 40,000  Level Minneapolis Center
03:42PM 40.9864 -94.6703 191° South 459 528 40,000  Level Minneapolis Center
03:43PM 40.8611 -94.7022 191° South 457 526 40,000  Level Minneapolis Center
03:44PM 40.7356 -94.7333 191° South 457 526 40,000  Level Minneapolis Center
03:45PM 40.5842 -94.7697 190° South 457 526 40,000  Level Minneapolis Center
03:46PM 40.4547 -94.8053 192° South 464 534 40,000  Level Minneapolis Center
03:47PM 40.3408 -94.8325 190° South 464 534 40,000  Level Kansas City Center
03:48PM 40.1994 -94.8667 190° South 461 531 40,000  Level Kansas City Center
03:49PM 40.0797 -94.8961 191° South 457 526 40,000  Level Kansas City Center
03:50PM 39.9394 -94.9303 191° South 459 528 40,000  Level Kansas City Center
03:51PM 39.8189 -94.9589 190° South 459 528 40,000  Level Kansas City Center
03:52PM 39.6972 -94.9894 191° South 462 532 40,000  Level Kansas City Center
03:53PM 39.5564 -95.0233 191° South 460 529 40,000  Level Kansas City Center
03:54PM 39.4342 -95.0522 190° South 464 534 40,000  Level Kansas City Center
03:55PM 39.2897 -95.0867 190° South 467 537 40,000  Level Kansas City Center
03:56PM 39.1550 -95.1189 191° South 468 539 40,000  Level Kansas City Center
03:57PM 39.0286 -95.1475 190° South 468 539 40,000  Level Kansas City Center
03:58PM 38.8983 -95.1772 190° South 460 529 40,000  Level Kansas City Center
03:59PM 38.7575 -95.2111 191° South 459 528 40,000  Level Kansas City Center
04:00PM 38.6361 -95.2381 190° South 461 531 40,000  Level Kansas City Center
04:01PM 38.5147 -95.2669 191° South 462 532 40,000  Level Kansas City Center
04:02PM 38.3742 -95.2997 190° South 460 529 40,000  Level Kansas City Center
04:03PM 38.2531 -95.3256 190° South 460 529 40,000  Level Kansas City Center
04:04PM 38.1108 -95.3600 191° South 463 533 40,000  Level Kansas City Center
04:05PM 37.9886 -95.3875 190° South 465 535 40,000  Level Kansas City Center
04:06PM 37.8639 -95.4183 191° South 460 529 40,000  Level Kansas City Center
04:07PM 37.7108 -95.4544 191° South 465 535 40,000  Level Kansas City Center
04:08PM 37.5825 -95.4775 188° South 465 535 40,000  Level Kansas City Center
04:09PM 37.4528 -95.4614 174° South 465 535 40,000  Level Kansas City Center
04:10PM 37.3231 -95.4481 175° South 465 535 40,000  Level Kansas City Center
04:12PM 37.1933 -95.4386 177° South 465 535 40,000  Level Kansas City Center
04:13PM 37.0631 -95.4300 177° South 467 537 40,000  Level Kansas City Center
04:14PM 36.9336 -95.4206 177° South 465 535 40,000  Level Kansas City Center
04:15PM 36.7800 -95.4092 177° South 459 528 40,000  Level Kansas City Center
04:16PM 36.6508 -95.3994 177° South 460 529 40,000  Level Kansas City Center
04:17PM 36.5158 -95.3894 177° South 461 531 40,000  Level Kansas City Center
04:18PM 36.3842 -95.3797 177° South 466 536 40,000  Level Kansas City Center
04:19PM 36.2539 -95.3692 176° South 468 539 40,000  Level Kansas City Center
04:20PM 36.1261 -95.3614 177° South 463 533 40,000  Level Kansas City Center
04:21PM 35.9942 -95.3522 177° South 455 524 40,000  Level Kansas City Center
04:22PM 35.8678 -95.3431 177° South 454 522 40,000  Level Kansas City Center
04:23PM 35.7400 -95.3350 177° South 457 526 40,000  Level Kansas City Center
04:24PM 35.5844 -95.3231 176° South 463 533 40,000  Level Kansas City Center
04:25PM 35.4542 -95.3139 177° South 466 536 40,000  Level Kansas City Center
04:26PM 35.3239 -95.3047 177° South 467 537 40,000  Level Kansas City Center
04:27PM 35.1944 -95.2947 176° South 465 535 40,000 -540 Level Kansas City Center
04:28PM 35.0650 -95.2881 178° South 468 539 39,000 -540 Descending Fort Worth Center
04:29PM 34.9444 -95.3161 191° South 443 510 39,000  Level Fort Worth Center
04:30PM 34.8350 -95.3872 208° Southwest 437 503 39,000  Level Fort Worth Center
04:31PM 34.7236 -95.4556 207° Southwest 442 509 39,000 -600 Level Fort Worth Center
04:32PM 34.6325 -95.5131 207° Southwest 453 521 37,900 -1,980 Descending Fort Worth Center
04:33PM 34.4919 -95.5969 206° Southwest 465 535 35,100 -2,820 Descending Fort Worth Center
04:34PM 34.3742 -95.6672 206° Southwest 465 535 32,300 -4,380 Descending Fort Worth Center
04:35PM 34.2622 -95.7375 207° Southwest 465 535 26,400 -4,440 Descending Fort Worth Center
04:36PM 34.1525 -95.8022 206° Southwest 460 529 23,400 -2,280 Descending Fort Worth Center
04:37PM 34.0533 -95.8617 206° Southwest 446 513 21,900 -1,680 Descending Fort Worth Center
04:38PM 33.9392 -95.9314 207° Southwest 429 494 20,100 -1,800 Descending Fort Worth Center
04:39PM 33.8314 -95.9983 207° Southwest 429 494 18,300 -1,680 Descending Fort Worth Center
04:40PM 33.7444 -96.0472 205° Southwest 405 466 16,800 -1,680 Descending Fort Worth Center
04:41PM 33.6325 -96.1136 206° Southwest 400 460 15,000 -1,680 Descending Fort Worth Center
04:42PM 33.5433 -96.1672 207° Southwest 400 460 13,500 -1,620 Descending Fort Worth Center
04:43PM 33.4394 -96.2311 207° Southwest 395 455 11,800 -1,500 Descending Fort Worth Center
04:44PM 33.3689 -96.2717 206° Southwest 344 396 10,600 -1,260 Descending Fort Worth Center
04:45PM 33.2858 -96.3225 207° Southwest 308 354 9,300 -1,200 Descending Fort Worth Center
04:46PM 33.2319 -96.3803 222° Southwest 294 338 8,300 -1,260 Descending Fort Worth Center
04:46PM 33.2167 -96.4000 227° Southwest 291 335 7,700 -960 Descending Dallas / Fort Worth TRACON
04:47PM 33.1667 -96.5000 239° Southwest 276 318 7,000 -360 Descending Dallas / Fort Worth TRACON
04:48PM 33.1333 -96.5833 244° Southwest 282 325 7,000 60 Level Dallas / Fort Worth TRACON
04:49PM 33.0981 -96.6050 207° Southwest 280 322 7,100 -300 Climbing Fort Worth Center
04:49PM 33.0667 -96.6333 217° Southwest 285 328 6,700 -1,500 Descending Dallas / Fort Worth TRACON
04:50PM 33.0333 -96.7167 245° Southwest 284 327 5,000 -900 Descending Dallas / Fort Worth TRACON
04:51PM 33.0000 -96.8000 245° Southwest 244 281 5,000 -180 Level Dallas / Fort Worth TRACON
04:52PM 33.0000 -96.8667 270° West 232 267 4,700 -960 Descending Dallas / Fort Worth TRACON
04:53PM 33.0000 -96.9500 270° West 207 238 3,100 -1,260 Descending Dallas / Fort Worth TRACON
04:54PM 32.9500 -96.9667 196° South 191 220 2,200 -660 Descending Dallas / Fort Worth TRACON
04:55PM 32.9167 -96.9167 128° Southeast 182 209 1,800 -540 Descending Dallas / Fort Worth TRACON
04:56PM 32.8833 -96.8833 140° Southeast 139 160 1,200 -600 Descending Dallas / Fort Worth TRACON
04:59PM 32.8471 -96.8518 228° Southwest  Level Estimated
05:06PM 32.8471 -96.8518 228° Southwest  Level Estimated